SARF/FMA METAR and TAF weather

Enter ICAO airport designator
Station Type Date Time Source
SARF METAR 2019/12/09 06:00 UTC NOAA

SARF 090600Z 27003KT CAVOK 20/19 Q1010


Station Type Date Time Source
SARF Decoded METAR 2019/12/09 06:00 UTC NOAA

Formosa Aerodrome, Argentina (SARF) 26-12S 058-14W 60M
Dec 09, 2019 - 01:00 AM EST / 2019.12.09 0600 UTC
Wind: from the W (270 degrees) at 3 MPH (3 KT):0
Visibility: greater than 7 mile(s):0
Temperature: 68 F (20 C)
Dew Point: 66 F (19 C)
Relative Humidity: 93%
Pressure (altimeter): 29.83 in. Hg (1010 hPa)
ob: SARF 090600Z 27003KT CAVOK 20/19 Q1010
cycle: 6

Station Type Date Time Source
SARF TAF 2019/12/09 06:09 UTC NOAA

TAF SARF 090500Z 0906/1006 02005KT CAVOK TX36/0918Z TN18/0909Z
BECMG 0913/0915 14005KT

Example: see airport list